Time;durP1;ratioP1;P1;durP2;ratioP2;P2;SDS_P1;SDS_P2;PMS_P1;PMS_P2;Temp;Humidity;BMP_temperature;BMP_pressure;BME280_temperature;BME280_humidity;BME280_pressure;Samples;Min_cycle;Max_cycle;Signal;HPM_P1;HPM_P2
2021/11/27 00:00:18;;;;;;;5.85;1.60;;;4.00;99.70;;;;;;5018696;28;20543;-57
2021/11/27 00:02:44;;;;;;;4.50;1.25;;;4.10;99.60;;;;;;5020418;28;20045;-53
2021/11/27 00:05:12;;;;;;;3.45;1.27;;;4.10;99.80;;;;;;5021036;28;20124;-54
2021/11/27 00:07:39;;;;;;;6.32;1.50;;;4.10;99.90;;;;;;5021546;28;20049;-56
2021/11/27 00:10:07;;;;;;;2.55;0.88;;;4.10;99.90;;;;;;5021146;28;20468;-55
2021/11/27 00:12:34;;;;;;;4.15;1.55;;;4.10;99.90;;;;;;5020617;28;20056;-56
2021/11/27 00:15:01;;;;;;;4.53;1.70;;;4.00;99.90;;;;;;5022783;28;20534;-54
2021/11/27 00:17:28;;;;;;;5.00;1.75;;;4.00;99.90;;;;;;5025337;28;20092;-51
2021/11/27 00:19:55;;;;;;;5.85;1.13;;;4.00;99.90;;;;;;5025085;28;20073;-54
2021/11/27 00:22:21;;;;;;;4.32;1.40;;;3.90;99.90;;;;;;5024979;28;20370;-55
2021/11/27 00:24:48;;;;;;;7.55;1.50;;;3.80;99.90;;;;;;5025026;28;20242;-56
2021/11/27 00:27:15;;;;;;;4.63;1.00;;;3.80;99.90;;;;;;5025281;28;20065;-56
2021/11/27 00:29:42;;;;;;;2.30;1.02;;;3.70;99.90;;;;;;5023799;28;20458;-56
2021/11/27 00:32:09;;;;;;;4.30;1.40;;;3.60;99.90;;;;;;5024668;28;20472;-54
2021/11/27 00:34:35;;;;;;;2.45;1.00;;;3.60;99.90;;;;;;5024507;28;20514;-56
2021/11/27 00:37:03;;;;;;;2.22;0.80;;;3.50;99.90;;;;;;5025097;28;20046;-55
2021/11/27 00:39:29;;;;;;;3.83;0.90;;;3.40;99.90;;;;;;5024797;28;20053;-54
2021/11/27 00:41:56;;;;;;;2.60;1.10;;;3.40;99.90;;;;;;5025384;28;20049;-57
2021/11/27 00:44:24;;;;;;;6.72;1.27;;;3.30;99.90;;;;;;5023401;28;20053;-58
2021/11/27 00:46:51;;;;;;;2.30;1.00;;;3.30;99.90;;;;;;5025062;28;20049;-57
2021/11/27 00:49:18;;;;;;;3.85;1.27;;;3.20;99.90;;;;;;5023695;28;20107;-58
2021/11/27 00:51:45;;;;;;;4.07;1.67;;;3.20;99.90;;;;;;5025525;28;20041;-57
2021/11/27 00:54:11;;;;;;;3.22;1.30;;;3.20;99.90;;;;;;5024472;28;20588;-56
2021/11/27 00:56:39;;;;;;;5.05;1.23;;;3.10;99.90;;;;;;5025084;28;20419;-57
2021/11/27 00:59:06;;;;;;;2.22;0.90;;;3.10;99.90;;;;;;5024401;28;20474;-57
2021/11/27 01:01:33;;;;;;;2.40;0.93;;;3.10;99.90;;;;;;5024263;28;20053;-57
2021/11/27 01:04:00;;;;;;;5.22;0.90;;;3.10;99.90;;;;;;5022174;28;20058;-58
2021/11/27 01:06:27;;;;;;;3.55;1.05;;;3.10;99.90;;;;;;5024112;28;20063;-58
2021/11/27 01:08:57;;;;;;;4.15;1.70;;;3.20;99.90;;;;;;5021557;28;20483;-57
2021/11/27 01:11:30;;;;;;;3.05;1.23;;;3.20;99.90;;;;;;5024008;28;20401;-58
2021/11/27 01:14:02;;;;;;;4.03;1.13;;;3.20;99.90;;;;;;5023993;28;20053;-57
2021/11/27 01:16:30;;;;;;;2.97;1.27;;;3.20;99.90;;;;;;5023621;28;20062;-57
2021/11/27 01:18:57;;;;;;;2.20;0.88;;;3.20;99.90;;;;;;5024132;28;20061;-57
2021/11/27 01:21:26;;;;;;;2.15;0.88;;;3.20;99.90;;;;;;5023297;28;20057;-57
2021/11/27 01:23:54;;;;;;;2.15;0.93;;;3.20;99.90;;;;;;5023572;28;20088;-57
2021/11/27 01:26:21;;;;;;;2.60;0.90;;;3.20;99.90;;;;;;5024405;28;20057;-58
2021/11/27 01:28:48;;;;;;;1.73;0.70;;;3.10;99.90;;;;;;5023588;28;20072;-58
2021/11/27 01:31:15;;;;;;;1.83;0.75;;;3.10;99.90;;;;;;5021824;28;20583;-58
2021/11/27 01:33:42;;;;;;;1.45;0.60;;;3.10;99.90;;;;;;5022024;28;20054;-58
2021/11/27 01:36:09;;;;;;;2.40;0.82;;;3.10;99.90;;;;;;5025157;28;20054;-59
2021/11/27 01:38:36;;;;;;;4.57;1.17;;;3.00;99.90;;;;;;5027616;28;20053;-56
2021/11/27 01:41:03;;;;;;;3.58;0.90;;;2.90;99.90;;;;;;5041407;28;20072;-59
2021/11/27 01:43:32;;;;;;;2.03;0.70;;;2.80;99.90;;;;;;5026916;28;20057;-59
2021/11/27 01:45:59;;;;;;;2.45;0.80;;;2.80;99.90;;;;;;5025107;28;20050;-58
2021/11/27 01:48:26;;;;;;;3.03;1.00;;;2.80;99.90;;;;;;5025498;28;20145;-58
2021/11/27 01:51:01;;;;;;;1.85;0.80;;;2.70;99.90;;;;;;5027150;28;20049;-59
2021/11/27 01:53:29;;;;;;;1.70;0.70;;;2.80;99.90;;;;;;5027067;28;20057;-59
2021/11/27 01:56:00;;;;;;;2.33;0.75;;;2.80;99.90;;;;;;5027221;28;20049;-58
2021/11/27 01:58:27;;;;;;;3.55;0.73;;;2.80;99.90;;;;;;5026423;28;20220;-58
2021/11/27 02:00:58;;;;;;;2.13;0.50;;;2.80;99.90;;;;;;5025570;28;20053;-64
2021/11/27 02:03:26;;;;;;;1.27;0.65;;;2.80;99.90;;;;;;5025750;28;20132;-58
2021/11/27 02:05:53;;;;;;;3.72;0.57;;;2.80;99.90;;;;;;5026887;28;20045;-59
2021/11/27 02:08:20;;;;;;;1.13;0.40;;;2.80;99.90;;;;;;5026975;28;20060;-58
2021/11/27 02:10:47;;;;;;;1.40;0.60;;;2.80;99.90;;;;;;5024977;28;20063;-58
2021/11/27 02:13:14;;;;;;;1.85;0.80;;;2.80;99.90;;;;;;5026354;28;20045;-58
2021/11/27 02:15:40;;;;;;;0.28;0.25;;;2.80;99.90;;;;;;5024944;28;20053;-58
2021/11/27 02:18:07;;;;;;;0.85;0.40;;;2.80;99.90;;;;;;5026116;28;20041;-58
2021/11/27 02:20:37;;;;;;;0.45;0.22;;;2.80;99.90;;;;;;5025907;28;20517;-57
2021/11/27 02:23:04;;;;;;;1.40;0.52;;;2.80;99.90;;;;;;5026363;28;20057;-58
2021/11/27 02:25:32;;;;;;;0.88;0.55;;;2.80;99.90;;;;;;5026454;28;20479;-58
2021/11/27 02:27:59;;;;;;;0.55;0.30;;;2.80;99.90;;;;;;5025617;28;20060;-58
2021/11/27 02:30:27;;;;;;;0.90;0.68;;;2.80;99.90;;;;;;5019375;28;20183;-57
2021/11/27 02:32:55;;;;;;;1.75;0.55;;;2.90;99.90;;;;;;5026362;28;20514;-58
2021/11/27 02:35:22;;;;;;;1.08;0.40;;;2.90;99.90;;;;;;5026076;28;20077;-58
2021/11/27 02:37:49;;;;;;;1.40;0.50;;;3.00;99.90;;;;;;5005889;28;20461;-58
2021/11/27 02:40:15;;;;;;;0.80;0.43;;;3.00;99.90;;;;;;5018544;28;20045;-53
2021/11/27 02:42:42;;;;;;;0.57;0.50;;;3.00;99.90;;;;;;5024751;28;20477;-58
2021/11/27 02:45:09;;;;;;;2.47;0.73;;;3.10;99.90;;;;;;5024064;28;20092;-57
2021/11/27 02:47:36;;;;;;;0.35;0.35;;;3.10;99.90;;;;;;5020725;28;20099;-58
2021/11/27 02:50:04;;;;;;;1.13;0.43;;;3.10;99.90;;;;;;5025536;28;20064;-58
2021/11/27 02:52:31;;;;;;;1.27;0.70;;;3.20;99.90;;;;;;5025326;28;20490;-58
2021/11/27 02:54:58;;;;;;;1.10;0.50;;;3.20;99.90;;;;;;5008088;28;20465;-58
2021/11/27 02:57:26;;;;;;;0.40;0.40;;;3.20;99.90;;;;;;5025114;28;20361;-55
2021/11/27 02:59:53;;;;;;;0.77;0.50;;;3.20;99.90;;;;;;5023148;28;20049;-56
2021/11/27 03:02:20;;;;;;;1.13;0.50;;;3.30;99.90;;;;;;5024973;28;20666;-57
2021/11/27 03:04:50;;;;;;;0.77;0.68;;;3.30;99.90;;;;;;5024195;28;20104;-57
2021/11/27 03:07:17;;;;;;;1.23;0.80;;;3.30;99.90;;;;;;5024202;28;20080;-57
2021/11/27 03:09:44;;;;;;;1.13;0.80;;;3.30;99.90;;;;;;5005060;28;20052;-58
2021/11/27 03:12:10;;;;;;;1.10;0.73;;;3.30;99.90;;;;;;5024207;28;20465;-57
2021/11/27 03:14:37;;;;;;;0.93;0.80;;;3.30;99.90;;;;;;5019822;28;20057;-58
2021/11/27 03:17:04;;;;;;;2.65;1.10;;;3.30;99.90;;;;;;5025710;28;20049;-58
2021/11/27 03:19:34;;;;;;;1.48;1.30;;;3.20;99.90;;;;;;5023117;28;20055;-57
2021/11/27 03:22:01;;;;;;;1.60;1.25;;;3.20;99.90;;;;;;5024965;28;20115;-58
2021/11/27 03:24:28;;;;;;;2.17;1.60;;;3.20;99.90;;;;;;5022826;28;20044;-58
2021/11/27 03:26:55;;;;;;;2.25;1.70;;;3.20;99.90;;;;;;5024833;28;20045;-58
2021/11/27 03:29:21;;;;;;;1.88;1.35;;;3.10;99.90;;;;;;5023559;28;20393;-54
2021/11/27 03:31:48;;;;;;;2.08;1.73;;;3.10;99.90;;;;;;5008465;28;20083;-55
2021/11/27 03:34:15;;;;;;;2.30;1.48;;;3.00;99.90;;;;;;5023666;28;20060;-57
2021/11/27 03:36:42;;;;;;;1.40;1.30;;;3.00;99.90;;;;;;5025580;28;20550;-58
2021/11/27 03:39:09;;;;;;;4.18;1.95;;;2.90;99.90;;;;;;5025686;28;20046;-57
2021/11/27 03:41:35;;;;;;;1.58;1.35;;;2.80;99.90;;;;;;5025822;28;20049;-58
2021/11/27 03:44:02;;;;;;;1.65;1.23;;;2.70;99.90;;;;;;5025478;28;20072;-56
2021/11/27 03:46:29;;;;;;;1.88;1.40;;;2.70;99.90;;;;;;5024238;28;20271;-56
2021/11/27 03:48:56;;;;;;;1.50;1.27;;;2.70;99.90;;;;;;5024082;28;20123;-56
2021/11/27 03:51:25;;;;;;;1.50;1.33;;;2.60;99.90;;;;;;5024709;28;20144;-58
2021/11/27 03:53:52;;;;;;;1.38;1.27;;;2.60;99.90;;;;;;5025083;28;20042;-58
2021/11/27 03:56:26;;;;;;;1.75;1.50;;;2.50;99.90;;;;;;5024710;28;20057;-58
2021/11/27 03:58:54;;;;;;;2.13;1.50;;;2.50;99.90;;;;;;5025384;28;20525;-57
2021/11/27 04:01:21;;;;;;;1.75;1.40;;;2.50;99.90;;;;;;5023808;28;20041;-57
2021/11/27 04:03:49;;;;;;;2.22;2.00;;;2.40;99.90;;;;;;5024757;28;21020;-58
2021/11/27 04:06:16;;;;;;;2.40;1.85;;;2.40;99.90;;;;;;5025462;28;20103;-58
2021/11/27 04:08:43;;;;;;;2.17;1.98;;;2.40;99.90;;;;;;5025267;28;20049;-58
2021/11/27 04:11:10;;;;;;;3.13;2.30;;;2.30;99.90;;;;;;5023987;28;20124;-56
2021/11/27 04:13:36;;;;;;;4.25;2.30;;;2.30;99.90;;;;;;5023727;28;20046;-57
2021/11/27 04:16:04;;;;;;;2.33;2.13;;;2.30;99.90;;;;;;5024107;28;20119;-58
2021/11/27 04:18:30;;;;;;;2.03;1.65;;;2.20;99.90;;;;;;5023530;28;20111;-57
2021/11/27 04:20:57;;;;;;;2.25;1.52;;;2.10;99.90;;;;;;5024958;28;20054;-56
2021/11/27 04:23:25;;;;;;;2.30;1.75;;;2.10;99.90;;;;;;5004246;28;20042;-56
2021/11/27 04:25:53;;;;;;;1.85;1.67;;;2.10;99.90;;;;;;5016106;28;20111;-56
2021/11/27 04:28:19;;;;;;;2.83;1.88;;;2.00;99.90;;;;;;5022107;28;20160;-56
2021/11/27 04:30:46;;;;;;;1.60;1.40;;;2.00;99.90;;;;;;5023366;28;20129;-57
2021/11/27 04:33:13;;;;;;;1.90;1.70;;;2.10;99.90;;;;;;5019644;28;20555;-58
2021/11/27 04:35:40;;;;;;;2.22;1.80;;;2.10;99.90;;;;;;5036054;28;20052;-58
2021/11/27 04:38:07;;;;;;;1.83;1.60;;;2.10;99.90;;;;;;5024925;28;20050;-56
2021/11/27 04:40:34;;;;;;;1.80;1.70;;;2.20;99.90;;;;;;5024707;28;20053;-57
2021/11/27 04:43:01;;;;;;;2.10;1.90;;;2.20;99.90;;;;;;5024545;28;20053;-55
2021/11/27 04:45:29;;;;;;;2.45;1.73;;;2.20;99.90;;;;;;5024161;28;20112;-58
2021/11/27 04:47:56;;;;;;;1.95;1.75;;;2.20;99.90;;;;;;5024397;28;20075;-55
2021/11/27 04:50:23;;;;;;;2.10;1.90;;;2.30;99.90;;;;;;5024579;28;20593;-55
2021/11/27 04:52:50;;;;;;;2.28;1.98;;;2.30;99.90;;;;;;5024701;28;20084;-57
2021/11/27 04:55:17;;;;;;;2.60;1.95;;;2.30;99.90;;;;;;5024745;28;20134;-57
2021/11/27 04:57:44;;;;;;;2.90;2.10;;;2.30;99.90;;;;;;5024662;28;20491;-57
2021/11/27 05:00:16;;;;;;;3.10;2.80;;;2.30;99.90;;;;;;5023416;28;20057;-57
2021/11/27 05:02:43;;;;;;;2.63;2.40;;;2.30;99.90;;;;;;5028462;28;20104;-57
2021/11/27 05:05:10;;;;;;;3.08;2.78;;;2.30;99.90;;;;;;5028711;28;20299;-57
2021/11/27 05:07:37;;;;;;;3.03;2.72;;;2.30;99.90;;;;;;5027101;28;20148;-56
2021/11/27 05:10:04;;;;;;;3.75;3.35;;;2.40;99.90;;;;;;5028119;28;20140;-56
2021/11/27 05:12:31;;;;;;;3.88;3.58;;;2.40;99.90;;;;;;5026457;28;20084;-57
2021/11/27 05:14:58;;;;;;;4.68;4.18;;;2.40;99.90;;;;;;5027199;28;20527;-57
2021/11/27 05:17:25;;;;;;;4.25;3.83;;;2.50;99.90;;;;;;5028685;28;20093;-57
2021/11/27 05:19:52;;;;;;;4.07;3.67;;;2.60;99.90;;;;;;5027338;28;20136;-57
2021/11/27 05:22:18;;;;;;;5.70;3.35;;;2.60;99.90;;;;;;5028223;28;20099;-58
2021/11/27 05:24:45;;;;;;;3.50;3.20;;;2.60;99.90;;;;;;5027145;28;20531;-58
2021/11/27 05:27:13;;;;;;;3.20;2.90;;;2.60;99.90;;;;;;5027773;28;20120;-57
2021/11/27 05:29:41;;;;;;;3.22;2.92;;;2.60;99.90;;;;;;5026864;28;20145;-57
2021/11/27 05:32:10;;;;;;;3.45;2.97;;;2.60;99.90;;;;;;5029608;28;20054;-57
2021/11/27 05:34:36;;;;;;;3.45;2.92;;;2.60;99.90;;;;;;5029331;28;20092;-57
2021/11/27 05:37:05;;;;;;;3.50;3.20;;;2.60;99.90;;;;;;5029576;28;20500;-57
2021/11/27 05:39:32;;;;;;;3.47;2.97;;;2.50;99.90;;;;;;5029074;28;20472;-58
2021/11/27 05:41:59;;;;;;;3.83;3.10;;;2.50;99.90;;;;;;5028448;28;20081;-58
2021/11/27 05:44:26;;;;;;;3.55;3.15;;;2.50;99.90;;;;;;5027607;28;20053;-57
2021/11/27 05:46:52;;;;;;;4.95;3.20;;;2.50;99.90;;;;;;5028846;28;20106;-57
2021/11/27 05:49:19;;;;;;;4.68;3.13;;;2.50;99.90;;;;;;5010037;28;20096;-57
2021/11/27 05:51:46;;;;;;;3.58;2.90;;;2.50;99.90;;;;;;5006392;28;20547;-57
2021/11/27 05:54:13;;;;;;;5.18;2.95;;;2.50;99.90;;;;;;5011653;28;20133;-55
2021/11/27 05:56:39;;;;;;;4.60;2.90;;;2.50;99.90;;;;;;5025744;28;20087;-58
2021/11/27 05:59:06;;;;;;;3.50;3.00;;;2.50;99.90;;;;;;5024934;28;20124;-56
2021/11/27 06:01:33;;;;;;;3.78;3.10;;;2.50;99.90;;;;;;5024898;28;20465;-56
2021/11/27 06:04:00;;;;;;;3.80;3.40;;;2.50;99.90;;;;;;5021418;28;20464;-57
2021/11/27 06:06:27;;;;;;;3.63;2.80;;;2.50;99.90;;;;;;5022707;28;20081;-55
2021/11/27 06:08:53;;;;;;;5.05;3.30;;;2.50;99.90;;;;;;5023034;28;20049;-58
2021/11/27 06:11:20;;;;;;;3.25;2.72;;;2.50;99.90;;;;;;5021879;28;20077;-57
2021/11/27 06:13:47;;;;;;;4.30;3.65;;;2.50;99.90;;;;;;5021898;28;20057;-58
2021/11/27 06:16:14;;;;;;;3.47;3.03;;;2.50;99.90;;;;;;5024139;28;20124;-57
2021/11/27 06:18:40;;;;;;;5.03;3.40;;;2.50;99.90;;;;;;5026061;28;20476;-58
2021/11/27 06:21:08;;;;;;;4.40;3.33;;;2.60;99.90;;;;;;5025138;28;20128;-57
2021/11/27 06:23:35;;;;;;;4.80;3.78;;;2.60;99.90;;;;;;5023378;28;20152;-57
2021/11/27 06:26:02;;;;;;;4.30;3.55;;;2.60;99.90;;;;;;5023042;28;20077;-56
2021/11/27 06:28:29;;;;;;;5.32;3.15;;;2.60;99.90;;;;;;5021461;28;20048;-57
2021/11/27 06:30:56;;;;;;;5.72;4.18;;;2.60;99.90;;;;;;5018159;28;20472;-58
2021/11/27 06:33:23;;;;;;;4.10;3.50;;;2.60;99.90;;;;;;5020858;28;20049;-57
2021/11/27 06:35:49;;;;;;;4.40;3.95;;;2.60;99.90;;;;;;5021003;28;20128;-57
2021/11/27 06:38:16;;;;;;;5.00;3.88;;;2.60;99.90;;;;;;5021680;28;20137;-57
2021/11/27 06:40:43;;;;;;;4.57;3.72;;;2.60;99.90;;;;;;5019664;28;20177;-58
2021/11/27 06:43:10;;;;;;;4.13;3.72;;;2.70;99.90;;;;;;5020608;28;20088;-58
2021/11/27 06:45:36;;;;;;;5.05;4.30;;;2.60;99.90;;;;;;5020425;28;20466;-57
2021/11/27 06:48:03;;;;;;;4.35;3.65;;;2.60;99.90;;;;;;5019135;28;20162;-56
2021/11/27 06:50:30;;;;;;;4.93;4.20;;;2.60;99.90;;;;;;5020819;28;20119;-56
2021/11/27 06:52:58;;;;;;;5.35;4.28;;;2.60;99.90;;;;;;5016664;28;20057;-58
2021/11/27 06:55:25;;;;;;;4.07;3.53;;;2.60;99.90;;;;;;5018201;28;20072;-60
2021/11/27 06:57:52;;;;;;;4.03;3.63;;;2.60;99.90;;;;;;5016522;28;20136;-57
2021/11/27 07:00:18;;;;;;;4.82;3.17;;;2.60;99.90;;;;;;5017223;28;20125;-58
2021/11/27 07:02:45;;;;;;;4.53;3.90;;;2.60;99.90;;;;;;5017859;28;20049;-59
2021/11/27 07:05:12;;;;;;;4.32;3.40;;;2.60;99.90;;;;;;5019890;28;20147;-58
2021/11/27 07:07:39;;;;;;;5.88;3.80;;;2.60;99.90;;;;;;5018899;28;20077;-57
2021/11/27 07:10:06;;;;;;;4.80;3.50;;;2.60;99.90;;;;;;5018912;28;20089;-57
2021/11/27 07:12:36;;;;;;;5.00;3.60;;;2.60;99.90;;;;;;5018523;28;20393;-55
2021/11/27 07:15:04;;;;;;;4.38;3.97;;;2.60;99.90;;;;;;5015907;28;20088;-58
2021/11/27 07:17:31;;;;;;;4.72;3.17;;;2.60;99.90;;;;;;5018130;28;20107;-54
2021/11/27 07:19:58;;;;;;;3.90;3.47;;;2.60;99.90;;;;;;5018240;28;20096;-58
2021/11/27 07:22:25;;;;;;;4.90;3.45;;;2.70;99.90;;;;;;5018495;28;20136;-57
2021/11/27 07:24:52;;;;;;;4.22;3.15;;;2.70;99.90;;;;;;5016671;28;20169;-57
2021/11/27 07:27:19;;;;;;;4.88;3.30;;;2.70;99.90;;;;;;5017944;28;20741;-57
2021/11/27 07:29:45;;;;;;;3.42;3.13;;;2.70;99.90;;;;;;5017241;28;20389;-57
2021/11/27 07:32:12;;;;;;;4.03;3.10;;;2.80;99.90;;;;;;5016541;28;20568;-56
2021/11/27 07:34:39;;;;;;;4.28;3.33;;;2.80;99.90;;;;;;5016541;28;20120;-56
2021/11/27 07:37:06;;;;;;;6.57;4.03;;;2.80;99.90;;;;;;5017777;28;20136;-57
2021/11/27 07:39:32;;;;;;;5.53;3.75;;;2.80;99.90;;;;;;5017668;28;20154;-57
2021/11/27 07:41:59;;;;;;;4.53;3.40;;;2.80;99.90;;;;;;5018393;28;20073;-58
2021/11/27 07:44:31;;;;;;;4.18;3.58;;;2.80;99.90;;;;;;5015614;28;20049;-57
2021/11/27 07:46:58;;;;;;;5.78;4.05;;;2.80;99.90;;;;;;5017519;28;20128;-57
2021/11/27 07:49:25;;;;;;;4.50;4.10;;;2.80;99.90;;;;;;5017783;28;20149;-56
2021/11/27 07:51:53;;;;;;;3.92;3.53;;;2.90;99.90;;;;;;5018232;28;20049;-57
2021/11/27 07:54:19;;;;;;;5.20;3.40;;;2.80;99.90;;;;;;5017548;28;20084;-57
2021/11/27 07:56:47;;;;;;;3.83;3.28;;;2.90;99.90;;;;;;5018220;28;20080;-57
2021/11/27 07:59:13;;;;;;;3.72;3.15;;;2.80;99.90;;;;;;5015959;28;20094;-56
2021/11/27 08:01:41;;;;;;;3.60;3.08;;;2.80;99.90;;;;;;5015405;28;20772;-57
2021/11/27 08:04:08;;;;;;;3.20;2.90;;;2.80;99.90;;;;;;5016479;28;20057;-57
2021/11/27 08:06:35;;;;;;;4.38;3.85;;;2.90;99.90;;;;;;5017605;28;20053;-58
2021/11/27 08:09:03;;;;;;;4.88;3.83;;;2.90;99.90;;;;;;5017476;28;20050;-58
2021/11/27 08:11:29;;;;;;;7.25;4.40;;;2.90;99.90;;;;;;5017883;28;20058;-58
2021/11/27 08:13:59;;;;;;;3.90;3.50;;;3.00;99.90;;;;;;5015961;28;20733;-58
2021/11/27 08:16:25;;;;;;;4.72;3.58;;;3.00;99.90;;;;;;5014942;28;20139;-58
2021/11/27 08:18:52;;;;;;;5.38;4.05;;;3.10;99.90;;;;;;5018156;28;20124;-57
2021/11/27 08:21:19;;;;;;;3.75;3.08;;;3.10;99.90;;;;;;5015190;28;20145;-58
2021/11/27 08:23:48;;;;;;;3.90;3.50;;;3.20;99.90;;;;;;5018449;28;20115;-58
2021/11/27 08:26:15;;;;;;;4.07;3.67;;;3.20;99.90;;;;;;5018703;28;20106;-58
2021/11/27 08:28:42;;;;;;;4.05;3.65;;;3.20;99.90;;;;;;5018728;28;20545;-57
2021/11/27 08:31:09;;;;;;;3.88;3.55;;;3.20;99.90;;;;;;5018075;28;20139;-58
2021/11/27 08:33:35;;;;;;;4.97;3.83;;;3.30;99.90;;;;;;5013881;28;20532;-58
2021/11/27 08:36:02;;;;;;;5.38;4.70;;;3.30;99.90;;;;;;5018550;28;20134;-58
2021/11/27 08:38:30;;;;;;;5.28;4.07;;;3.30;99.90;;;;;;5022475;28;20182;-58
2021/11/27 08:40:58;;;;;;;4.03;3.63;;;3.40;99.90;;;;;;5022082;28;20934;-58
2021/11/27 08:43:25;;;;;;;5.15;4.38;;;3.40;99.90;;;;;;5021344;28;20061;-58
2021/11/27 08:45:52;;;;;;;6.30;3.85;;;3.40;99.90;;;;;;5021651;28;20103;-58
2021/11/27 08:48:18;;;;;;;4.13;3.42;;;3.50;99.90;;;;;;5021506;28;20101;-56
2021/11/27 08:50:45;;;;;;;3.90;3.22;;;3.50;99.90;;;;;;5022060;28;20100;-56
2021/11/27 08:53:12;;;;;;;4.57;3.50;;;3.60;99.90;;;;;;5022047;28;20053;-57
2021/11/27 08:55:39;;;;;;;3.50;2.70;;;3.60;99.90;;;;;;5021273;28;20045;-56
2021/11/27 08:58:06;;;;;;;3.65;2.92;;;3.70;99.90;;;;;;5021700;28;20837;-55
2021/11/27 09:00:32;;;;;;;3.33;2.53;;;3.70;99.90;;;;;;5020303;28;20038;-56
2021/11/27 09:03:00;;;;;;;6.97;2.40;;;3.70;99.90;;;;;;5021924;28;20056;-57
2021/11/27 09:05:27;;;;;;;4.35;2.22;;;3.80;99.90;;;;;;5022128;28;20104;-55
2021/11/27 09:07:53;;;;;;;3.13;2.10;;;3.80;99.90;;;;;;5019987;28;20045;-57
2021/11/27 09:10:20;;;;;;;3.20;2.38;;;3.90;99.90;;;;;;5019457;28;20084;-56
2021/11/27 09:12:48;;;;;;;4.40;2.20;;;3.90;99.90;;;;;;5017546;28;20053;-56
2021/11/27 09:15:14;;;;;;;4.78;1.95;;;3.90;99.90;;;;;;5020140;28;20137;-57
2021/11/27 09:17:41;;;;;;;4.63;1.80;;;4.00;99.90;;;;;;5020223;28;20679;-59
2021/11/27 09:20:08;;;;;;;4.18;1.67;;;4.00;99.90;;;;;;5021191;28;20088;-56
2021/11/27 09:22:35;;;;;;;2.65;1.77;;;4.00;99.90;;;;;;5020235;28;20461;-56
2021/11/27 09:25:02;;;;;;;2.72;1.55;;;4.10;99.90;;;;;;5020875;28;20041;-57
2021/11/27 09:27:29;;;;;;;3.65;1.75;;;4.00;99.90;;;;;;5020370;28;20084;-56
2021/11/27 09:30:01;;;;;;;4.72;2.67;;;4.00;99.90;;;;;;5019373;28;20114;-56
2021/11/27 09:32:30;;;;;;;2.20;1.60;;;4.00;99.90;;;;;;4999600;28;20417;-56
2021/11/27 09:34:57;;;;;;;3.83;2.20;;;3.90;99.90;;;;;;5018844;28;20111;-56
2021/11/27 09:37:25;;;;;;;2.65;1.88;;;4.00;99.90;;;;;;5018719;28;20113;-57
2021/11/27 09:39:52;;;;;;;3.90;2.15;;;4.00;99.90;;;;;;5016969;28;20045;-54
2021/11/27 09:42:19;;;;;;;4.03;2.03;;;3.90;99.90;;;;;;5017815;28;20473;-55
2021/11/27 09:44:50;;;;;;;4.03;1.98;;;4.00;99.90;;;;;;5019347;28;20077;-55
2021/11/27 09:47:17;;;;;;;3.13;1.60;;;4.00;99.90;;;;;;5018229;28;20077;-57
2021/11/27 09:49:45;;;;;;;3.33;1.67;;;4.10;99.90;;;;;;5018663;28;20080;-56
2021/11/27 09:52:12;;;;;;;5.22;1.88;;;4.20;99.90;;;;;;5020218;28;20165;-55
2021/11/27 09:54:39;;;;;;;3.53;1.55;;;4.30;99.90;;;;;;5018542;28;20061;-57
2021/11/27 09:57:11;;;;;;;2.38;1.52;;;4.40;99.90;;;;;;5019726;28;20132;-56
2021/11/27 09:59:39;;;;;;;3.03;1.60;;;4.50;99.90;;;;;;5018358;28;20495;-57
2021/11/27 10:02:07;;;;;;;4.72;1.83;;;4.60;99.90;;;;;;5019359;28;20053;-55
2021/11/27 10:04:34;;;;;;;3.20;1.60;;;4.80;99.90;;;;;;5017356;28;20121;-56
2021/11/27 10:07:01;;;;;;;2.83;1.35;;;4.80;99.90;;;;;;5015185;28;20133;-56
2021/11/27 10:09:28;;;;;;;3.70;1.63;;;5.00;99.90;;;;;;5014209;28;20057;-56
2021/11/27 10:11:55;;;;;;;4.63;1.77;;;5.10;99.90;;;;;;5017222;28;20150;-55
2021/11/27 10:14:22;;;;;;;3.00;1.75;;;5.20;99.90;;;;;;5017492;28;20140;-54
2021/11/27 10:17:01;;;;;;;4.40;2.05;;;5.40;99.90;;;;;;5018457;28;20755;-54
2021/11/27 10:19:30;;;;;;;2.95;1.73;;;5.50;99.90;;;;;;5018282;28;20084;-58
2021/11/27 10:21:58;;;;;;;4.32;2.10;;;5.50;99.90;;;;;;5018923;28;20081;-58
2021/11/27 10:24:30;;;;;;;4.38;1.98;;;5.50;99.90;;;;;;5015440;28;20497;-57
2021/11/27 10:26:58;;;;;;;3.65;1.80;;;5.50;99.90;;;;;;5017988;28;20555;-57
2021/11/27 10:29:33;;;;;;;4.78;1.88;;;5.40;99.90;;;;;;5016536;28;20057;-57
2021/11/27 10:32:12;;;;;;;4.00;1.73;;;5.40;99.90;;;;;;5018107;28;20578;-58
2021/11/27 10:34:50;;;;;;;3.50;1.90;;;5.40;99.90;;;;;;5018156;28;20148;-51
2021/11/27 10:37:40;;;;;;;4.25;2.28;;;5.40;99.90;;;;;;5017805;28;20151;-54
2021/11/27 10:40:25;;;;;;;3.38;1.90;;;5.30;99.90;;;;;;5016148;28;20131;-56
2021/11/27 10:43:05;;;;;;;3.78;2.00;;;5.30;99.90;;;;;;5009460;28;20049;-56
2021/11/27 10:45:34;;;;;;;2.80;1.90;;;5.20;99.90;;;;;;5016260;28;20402;-56
2021/11/27 10:48:12;;;;;;;5.75;1.83;;;5.20;99.90;;;;;;5013154;28;20045;-56
2021/11/27 10:50:47;;;;;;;4.50;2.28;;;5.20;99.90;;;;;;5016713;28;20143;-58
2021/11/27 10:53:16;;;;;;;3.47;1.77;;;5.20;99.90;;;;;;5017888;28;20453;-57
2021/11/27 10:55:43;;;;;;;2.53;1.52;;;5.20;99.90;;;;;;5018569;28;20053;-56
2021/11/27 10:58:10;;;;;;;5.53;2.00;;;5.30;99.90;;;;;;5016987;28;20133;-58
2021/11/27 11:00:43;;;;;;;3.72;1.40;;;5.40;99.90;;;;;;5016574;28;20411;-57
2021/11/27 11:03:29;;;;;;;5.53;1.50;;;5.40;99.90;;;;;;5017573;28;20065;-55
2021/11/27 11:05:58;;;;;;;5.60;1.73;;;5.50;99.90;;;;;;5016016;28;20516;-53
2021/11/27 11:08:38;;;;;;;2.53;1.60;;;5.40;99.90;;;;;;5017500;28;20085;-56
2021/11/27 11:11:20;;;;;;;3.63;1.38;;;5.50;99.90;;;;;;5015941;28;20192;-56
2021/11/27 11:13:52;;;;;;;3.13;1.20;;;5.50;99.90;;;;;;5018461;28;20651;-57
2021/11/27 11:16:20;;;;;;;3.57;1.33;;;5.60;99.90;;;;;;5017412;28;20049;-57
2021/11/27 11:18:51;;;;;;;2.40;1.10;;;5.60;99.90;;;;;;5018421;28;20100;-57
2021/11/27 11:21:19;;;;;;;4.63;1.65;;;5.70;99.90;;;;;;5013494;28;20139;-58
2021/11/27 11:23:46;;;;;;;5.97;1.48;;;5.60;99.90;;;;;;5015623;28;20430;-56
2021/11/27 11:26:29;;;;;;;2.33;1.00;;;5.60;99.90;;;;;;5013227;28;20789;-58
2021/11/27 11:28:57;;;;;;;3.90;1.15;;;5.80;99.90;;;;;;5008442;28;20144;-58
2021/11/27 11:31:26;;;;;;;2.65;1.35;;;5.90;99.90;;;;;;5017826;28;20076;-57
2021/11/27 11:33:57;;;;;;;2.45;1.20;;;6.00;99.90;;;;;;5018750;28;20061;-57
2021/11/27 11:36:32;;;;;;;2.17;1.10;;;6.00;99.90;;;;;;5018476;28;20191;-58
2021/11/27 11:39:00;;;;;;;2.90;1.08;;;6.10;99.90;;;;;;5017098;28;20160;-58
2021/11/27 11:41:32;;;;;;;3.55;1.15;;;6.10;99.90;;;;;;5018511;28;20053;-55
2021/11/27 11:43:59;;;;;;;1.98;1.00;;;6.00;99.90;;;;;;5017962;28;20053;-56
2021/11/27 11:46:25;;;;;;;2.22;0.95;;;5.90;99.90;;;;;;5017447;28;20161;-58
2021/11/27 11:48:54;;;;;;;1.83;0.90;;;5.80;99.90;;;;;;5017866;28;20161;-57
2021/11/27 11:51:29;;;;;;;1.70;1.00;;;5.60;99.90;;;;;;5017767;28;20081;-57
2021/11/27 11:53:56;;;;;;;1.80;0.80;;;5.50;99.90;;;;;;5017255;28;20152;-57
2021/11/27 11:56:36;;;;;;;2.75;1.02;;;5.40;99.90;;;;;;5017230;28;20085;-54
2021/11/27 11:59:27;;;;;;;2.33;0.90;;;5.40;99.90;;;;;;5017226;28;20057;-55
2021/11/27 12:02:13;;;;;;;2.22;1.00;;;5.30;99.90;;;;;;5013155;28;20053;-57
2021/11/27 12:04:59;;;;;;;3.72;1.00;;;5.30;99.90;;;;;;5011992;28;20121;-55
2021/11/27 12:07:57;;;;;;;1.13;0.55;;;5.20;99.90;;;;;;5016967;28;20617;-56
2021/11/27 12:10:40;;;;;;;1.60;0.75;;;5.20;99.90;;;;;;5014914;28;20051;-55
2021/11/27 12:13:10;;;;;;;1.98;0.90;;;5.20;99.90;;;;;;5019849;28;20145;-57
2021/11/27 12:15:39;;;;;;;2.70;0.80;;;5.10;99.90;;;;;;5016907;28;20053;-57
2021/11/27 12:18:17;;;;;;;2.72;1.40;;;5.10;99.90;;;;;;5020290;28;20053;-57
2021/11/27 12:20:58;;;;;;;1.58;0.80;;;5.20;99.90;;;;;;5019705;28;20041;-57
2021/11/27 12:23:25;;;;;;;3.65;1.27;;;5.20;99.90;;;;;;5015372;28;20164;-56
2021/11/27 12:26:10;;;;;;;2.40;1.10;;;5.20;99.90;;;;;;5020017;28;20125;-57
2021/11/27 12:28:48;;;;;;;4.43;1.10;;;5.20;99.90;;;;;;5016551;28;20057;-56
2021/11/27 12:31:24;;;;;;;4.15;1.38;;;5.20;99.90;;;;;;5019304;28;20088;-57
2021/11/27 12:34:01;;;;;;;4.22;1.70;;;5.20;99.90;;;;;;5016265;28;20111;-56
2021/11/27 12:36:29;;;;;;;3.33;1.80;;;5.20;99.90;;;;;;5014487;28;20435;-58
2021/11/27 12:38:57;;;;;;;3.80;1.58;;;5.20;99.90;;;;;;5016916;28;20132;-56
2021/11/27 12:41:32;;;;;;;5.50;1.88;;;5.20;99.90;;;;;;5018732;28;20136;-57
2021/11/27 12:44:19;;;;;;;2.67;1.40;;;5.10;99.90;;;;;;5019485;28;20088;-57
2021/11/27 12:46:52;;;;;;;2.97;1.42;;;5.10;99.90;;;;;;5017511;28;20472;-56
2021/11/27 12:49:31;;;;;;;6.72;1.77;;;5.10;99.90;;;;;;5017854;28;20121;-57
2021/11/27 12:52:16;;;;;;;3.65;1.50;;;5.00;99.90;;;;;;5011790;28;20081;-56
2021/11/27 12:54:52;;;;;;;4.55;1.83;;;5.00;99.90;;;;;;5017200;28;20065;-58
2021/11/27 12:57:28;;;;;;;5.78;1.85;;;4.90;99.90;;;;;;5016362;28;20057;-57
2021/11/27 13:00:14;;;;;;;4.85;1.40;;;4.90;99.90;;;;;;5018309;28;20473;-57
2021/11/27 13:03:05;;;;;;;5.30;1.70;;;5.00;99.90;;;;;;5017034;28;20053;-57
2021/11/27 13:05:36;;;;;;;7.03;2.22;;;5.00;99.90;;;;;;5017557;28;20084;-57